RJAAROAH

Guest
Details From RJAA - Narita Intl
To ROAH - Naha
Flight Number -
Tags Routegen Generated
Created
Modified
Stats Distance 878 nm / 1,627 km
Max Altitude 19,800 ft / 6,035 m
Waypoints 15
Social Downloads 3
Likes 0
Share VATSIM

Download

Looking for another format? Having issues loading an existing format? Contact us
Advertisement - Login to hide

Notes

Departing runway 14 RJAA. Arriving runway 17 ROAH.

Route

RJAA +35.68_+140.44 +35.62_+140.45 +35.57_+140.44 +35.52_+140.40 +35.48_+140.35 +34.11_+138.15 +32.70_+136.02 +31.26_+133.96 +29.79_+131.96 +28.28_+130.03 +26.38_+127.70 +26.34_+127.66 +26.28_+127.64 ROAH

ID Type Via Altitude Latitude Longitude Leg Dist Tot Dist Heading (true) Name
O RJAA APT - 0 ft / 0 m 35.74332˚ 140.39074˚ - 0 nm - -
+35.68_+140.44 LATLON - 230 ft / 70 m 35.68088˚ 140.43579˚ 4 nm 4 nm 150° / 150° -
+35.62_+140.45 LATLON - 760 ft / 232 m 35.62394˚ 140.44862˚ 3 nm 7 nm 170° / 170° -
+35.57_+140.44 LATLON - 1,560 ft / 475 m 35.56686˚ 140.43672˚ 3 nm 11 nm 190° / 190° -
+35.52_+140.40 LATLON - 2,630 ft / 802 m 35.51653˚ 140.40157˚ 3 nm 14 nm 210° / 210° -
+35.48_+140.35 LATLON - 19,800 ft / 6,035 m 35.47901˚ 140.34741˚ 3 nm 18 nm 230° / 230° -
+34.11_+138.15 LATLON - 19,800 ft / 6,035 m 34.10859˚ 138.14615˚ 136 nm 154 nm 233° / 232° -
+32.70_+136.02 LATLON - 19,800 ft / 6,035 m 32.70135˚ 136.01997˚ 136 nm 290 nm 232° / 231° -
+31.26_+133.96 LATLON - 19,800 ft / 6,035 m 31.25937˚ 133.96061˚ 136 nm 426 nm 231° / 230° -
+29.79_+131.96 LATLON - 19,800 ft / 6,035 m 29.78555˚ 131.96390˚ 136 nm 562 nm 230° / 229° -
+28.28_+130.03 LATLON - 19,800 ft / 6,035 m 28.28261˚ 130.02570˚ 136 nm 698 nm 229° / 228° -
+26.38_+127.70 LATLON - 1,560 ft / 475 m 26.38270˚ 127.70078˚ 168 nm 867 nm 228° / 227° -
+26.34_+127.66 LATLON - 760 ft / 232 m 26.33683˚ 127.66136˚ 3 nm 870 nm 218° / 218° -
+26.28_+127.64 LATLON - 230 ft / 70 m 26.28164˚ 127.64184˚ 3 nm 874 nm 198° / 198° -
O ROAH APT - 0 ft / 0 m 26.20934˚ 127.64523˚ 4 nm 878 nm 178° / 178° -

Altitude Profile

Advertisement - Login to hide

Weather


0- 5 10 15 20 25 30 35+ Temperature / ° C

Clouds and Precipitation
Forecast for 2017-12-11 18:00 UTC. Updated 2 hours ago

Ground ~20,000 ft ~40,000 ft Winds

RJAA

Details ICAO RJAA (NRT)
Name NARITA INTL
Region Japan
Timezone Asia/Tokyo (UTC+9.0)
Stats Elevation 141 ft / 43 m (AMSL)
Location 35.776552° 140.382770°
Runways 2
Magnetic Variation 7.405° W

METAR

RJAA 111900Z VRB02KT 9999 FEW030 02/M05 Q1007 NOSIG RMK 1CU030 A2976

Decode

TAF

TAF RJAA 111705Z 1118/1300 25008KT 9999 FEW030= TAF RJBB 111705Z 1118/1300 29022KT 9999 FEW020 BKN035 TEMPO 1118/1200 29024G34KT

Decode

Departure Runways

ID Width Length Bearing (true) Bearing (mag) Surface Threshold Offset Overrun Length
16L 196 ft / 60 m 7,162 ft / 2,183 m 149.61° 157.01° Asphalt 190 ft / 58 m 0 ft / 0 m
16R 196 ft / 60 m 13,142 ft / 4,006 m 149.61° 157.01° Asphalt 0 ft / 0 m 410 ft / 125 m
34L 196 ft / 60 m 13,142 ft / 4,006 m 329.62° 337.02° Asphalt 0 ft / 0 m 415 ft / 126 m
34R 196 ft / 60 m 7,162 ft / 2,183 m 329.62° 337.02° Asphalt 190 ft / 58 m 0 ft / 0 m

ROAH

Details ICAO ROAH (OKA)
Name NAHA
Region Japan
Timezone Asia/Tokyo (UTC+9.0)
Stats Elevation 12 ft / 4 m (AMSL)
Location 26.195815° 127.645868°
Runways 1
Magnetic Variation 5.229° W

METAR

ROAH 111900Z 04011KT 9999 FEW040 BKN060 17/08 Q1020

Decode

TAF

TAF ROAH 111706Z 1118/1300 04012KT 9999 SCT040

Decode

Destination Runways

ID Width Length Bearing (true) Bearing (mag) Surface Threshold Offset Overrun Length
18 150 ft / 46 m 9,881 ft / 3,012 m 177.59° 182.82° Asphalt 138 ft / 42 m 640 ft / 195 m
36 150 ft / 46 m 9,881 ft / 3,012 m 357.59° 2.82° Asphalt 0 ft / 0 m 509 ft / 155 m

Approach Navaids

Runway Type Ident Frequency Range Bearing (true) Bearing (mag) Slope Elevation
36 Localiser IOK 110.30 MHz 18 nm / 33 km 356.78° 2.01° - 52 ft / 16 m (AMSL)
36 Glidescope IOK 110.30 MHz 10 nm / 19 km 357.59° 2.82° 2.75° 52 ft / 16 m (AMSL)
36 DME IOK 110.30 MHz 18 nm / 33 km - - - 31 ft / 9 m (AMSL)

Popular Alternatives